Aviation Digital Data Service (ADDS)

Output produced by TAFs form (0639 UTC 21 August 2017)
found at http://aviationweather.gov/adds/tafs/
 
KABQ 210534Z 2106/2206 14011KT P6SM VCSH SCT035 BKN070 
     TEMPO 2106/2110 09011G19KT 6SM -SHRA SCT020 BKN035 
     FM211100 VRB06KT P6SM VCSH SCT030 BKN050 
     FM211600 VRB06KT P6SM SCT060 BKN100 
     FM211900 24008KT P6SM SCT060 BKN100 
     FM220100 15011KT P6SM VCSH SCT060 BKN100